createdAt,value
2023-04-09T00:01:39.923Z,18.97
2023-04-09T00:04:07.033Z,21.35
2023-04-09T00:06:34.087Z,23.88
2023-04-09T00:09:01.293Z,23.08
2023-04-09T00:11:28.337Z,23.20
2023-04-09T00:13:55.400Z,29.25
2023-04-09T00:16:22.678Z,23.20
2023-04-09T00:18:50.266Z,19.97
2023-04-09T00:21:18.079Z,20.50
2023-04-09T00:23:45.390Z,22.87
2023-04-09T00:26:12.539Z,19.30
2023-04-09T00:28:39.926Z,23.63
2023-04-09T00:31:07.033Z,27.20
2023-04-09T00:33:34.088Z,19.80
2023-04-09T00:36:01.358Z,24.07
2023-04-09T00:38:28.432Z,19.45
2023-04-09T00:40:55.503Z,22.80
2023-04-09T00:43:23.106Z,21.83
2023-04-09T00:45:50.428Z,22.93
2023-04-09T00:48:17.458Z,23.13
2023-04-09T00:50:44.524Z,20.60
2023-04-09T00:53:11.496Z,27.23
2023-04-09T00:55:40.449Z,22.67
2023-04-09T00:58:07.775Z,23.27
2023-04-09T01:00:35.242Z,18.87
2023-04-09T01:03:02.336Z,20.65
2023-04-09T01:05:34.488Z,19.53
2023-04-09T01:08:14.173Z,22.95
2023-04-09T01:11:10.161Z,20.60
2023-04-09T01:13:47.658Z,23.23
2023-04-09T01:16:15.772Z,24.53
2023-04-09T01:18:47.782Z,23.37
2023-04-09T01:21:16.922Z,20.47
2023-04-09T01:24:16.005Z,23.05
2023-04-09T01:27:09.444Z,20.60
2023-04-09T01:29:52.014Z,22.20
2023-04-09T01:32:19.175Z,21.27
2023-04-09T01:34:47.497Z,23.00
2023-04-09T01:37:14.542Z,21.27
2023-04-09T01:39:41.513Z,27.77
2023-04-09T01:42:11.136Z,19.40
2023-04-09T01:44:41.596Z,21.67
2023-04-09T01:47:08.780Z,17.33
2023-04-09T01:49:36.107Z,24.37
2023-04-09T01:52:03.305Z,19.83
2023-04-09T01:54:30.306Z,21.03
2023-04-09T01:56:57.839Z,20.27
2023-04-09T01:59:25.289Z,18.27
2023-04-09T02:02:00.090Z,22.43
2023-04-09T02:04:33.214Z,22.98
2023-04-09T02:07:20.470Z,19.93
2023-04-09T02:09:48.188Z,18.80
2023-04-09T02:12:17.926Z,22.70
2023-04-09T02:14:48.472Z,20.33
2023-04-09T02:17:16.099Z,21.60
2023-04-09T02:19:44.685Z,20.80
2023-04-09T02:22:11.977Z,20.17
2023-04-09T02:24:40.507Z,23.07
2023-04-09T02:27:07.659Z,20.40
2023-04-09T02:29:34.632Z,20.57
2023-04-09T02:32:01.653Z,22.23
2023-04-09T02:34:28.806Z,19.13
2023-04-09T02:36:55.662Z,19.33
2023-04-09T02:39:22.588Z,19.67
2023-04-09T02:41:49.562Z,17.83
2023-04-09T02:44:16.523Z,19.87
2023-04-09T02:46:46.603Z,21.37
2023-04-09T02:49:13.609Z,22.23
2023-04-09T02:51:40.632Z,21.77
2023-04-09T02:54:07.567Z,20.53
2023-04-09T02:56:34.692Z,20.20
2023-04-09T02:59:01.602Z,24.13
2023-04-09T03:01:28.548Z,21.37
2023-04-09T03:03:55.562Z,20.80
2023-04-09T03:06:22.561Z,22.67
2023-04-09T03:08:49.757Z,20.90
2023-04-09T03:11:16.913Z,21.23
2023-04-09T03:13:43.885Z,19.60
2023-04-09T03:16:10.796Z,22.97
2023-04-09T03:18:37.744Z,21.53
2023-04-09T03:21:06.626Z,20.60
2023-04-09T03:23:35.185Z,22.57
2023-04-09T03:26:03.382Z,23.73
2023-04-09T03:28:34.398Z,24.30
2023-04-09T03:31:01.463Z,23.07
2023-04-09T03:33:29.310Z,24.77
2023-04-09T03:35:58.851Z,23.03
2023-04-09T03:38:38.747Z,21.77
2023-04-09T03:41:20.508Z,19.40
2023-04-09T03:43:47.586Z,16.17
2023-04-09T03:46:18.432Z,25.43
2023-04-09T03:48:47.987Z,25.10
2023-04-09T03:51:15.883Z,21.03
2023-04-09T03:53:48.837Z,19.57
2023-04-09T03:56:16.289Z,25.60
2023-04-09T03:58:43.829Z,24.97
2023-04-09T04:01:13.106Z,28.10
2023-04-09T04:03:50.424Z,20.70
2023-04-09T04:06:25.685Z,22.77
2023-04-09T04:09:07.314Z,23.53
2023-04-09T04:11:42.442Z,21.13
2023-04-09T04:14:09.823Z,28.70
2023-04-09T04:16:37.515Z,23.60
2023-04-09T04:19:06.077Z,23.57
2023-04-09T04:21:40.664Z,24.03
2023-04-09T04:24:08.171Z,25.40
2023-04-09T04:26:35.388Z,27.20
2023-04-09T04:29:02.789Z,24.57
2023-04-09T04:31:48.573Z,22.00
2023-04-09T04:34:18.590Z,22.60
2023-04-09T04:36:50.595Z,22.30
2023-04-09T04:39:18.225Z,22.27
2023-04-09T04:41:56.870Z,24.97
2023-04-09T04:44:26.422Z,23.53
2023-04-09T04:47:05.284Z,26.40
2023-04-09T04:49:32.331Z,23.87
2023-04-09T04:52:01.214Z,24.70
2023-04-09T04:54:28.793Z,24.73
2023-04-09T04:56:57.849Z,25.43
2023-04-09T04:59:38.593Z,31.87
2023-04-09T05:02:07.821Z,28.30
2023-04-09T05:11:54.290Z,25.17
2023-04-09T05:14:22.872Z,27.37
2023-04-09T05:16:50.010Z,24.63
2023-04-09T05:19:20.505Z,30.00
2023-04-09T05:21:48.912Z,27.80
2023-04-09T05:24:21.319Z,26.73
2023-04-09T05:26:48.246Z,25.93
2023-04-09T05:29:17.229Z,23.70
2023-04-09T05:31:44.170Z,25.57
2023-04-09T05:34:20.889Z,24.73
2023-04-09T05:36:51.618Z,28.00
2023-04-09T05:39:21.479Z,25.53
2023-04-09T05:41:48.498Z,30.67
2023-04-09T05:44:35.654Z,30.10
2023-04-09T05:47:08.493Z,27.17
2023-04-09T05:49:42.042Z,23.00
2023-04-09T05:52:16.827Z,24.93
2023-04-09T05:54:44.001Z,30.17
2023-04-09T05:57:12.160Z,27.70
2023-04-09T05:59:42.882Z,26.17
2023-04-09T06:02:09.864Z,28.00
2023-04-09T06:04:36.869Z,30.03
2023-04-09T06:07:03.903Z,23.50
2023-04-09T06:09:31.075Z,23.60
2023-04-09T06:11:58.397Z,26.50
2023-04-09T06:14:26.068Z,23.80
2023-04-09T06:16:53.153Z,25.00
2023-04-09T06:19:20.463Z,20.70
2023-04-09T06:21:47.635Z,54.40
2023-04-09T06:24:14.781Z,48.00
2023-04-09T06:26:41.935Z,27.90
2023-04-09T06:29:09.085Z,51.53
2023-04-09T06:31:36.077Z,28.73
2023-04-09T06:34:04.613Z,29.80
2023-04-09T06:36:56.282Z,24.47
2023-04-09T06:39:26.640Z,24.73
2023-04-09T06:41:57.087Z,27.50
2023-04-09T06:44:44.583Z,41.17
2023-04-09T06:47:12.039Z,26.40
2023-04-09T06:49:48.567Z,26.27
2023-04-09T06:52:18.998Z,32.47
2023-04-09T06:54:47.862Z,21.20
2023-04-09T06:57:17.941Z,24.03
2023-04-09T06:59:45.161Z,30.40
2023-04-09T07:02:12.239Z,19.80
2023-04-09T07:04:39.459Z,49.80
2023-04-09T07:07:06.515Z,21.20
2023-04-09T07:09:33.903Z,19.77
2023-04-09T07:12:01.286Z,43.73
2023-04-09T07:14:28.267Z,20.27
2023-04-09T07:16:59.169Z,22.07
2023-04-09T07:19:57.070Z,28.63
2023-04-09T07:22:26.818Z,17.70
2023-04-09T07:24:54.886Z,40.27
2023-04-09T07:27:23.272Z,24.80
2023-04-09T07:29:50.674Z,22.60
2023-04-09T07:32:18.010Z,21.83
2023-04-09T07:34:45.338Z,23.33
2023-04-09T07:37:13.260Z,28.53
2023-04-09T07:39:40.577Z,28.57
2023-04-09T07:42:07.840Z,25.27
2023-04-09T07:44:36.400Z,23.87
2023-04-09T07:47:04.413Z,23.77
2023-04-09T07:49:31.854Z,27.27
2023-04-09T07:52:02.204Z,27.90
2023-04-09T07:54:30.196Z,20.10
2023-04-09T07:56:57.872Z,27.90
2023-04-09T07:59:24.982Z,25.02
2023-04-09T08:01:52.023Z,25.83
2023-04-09T08:04:20.064Z,20.83
2023-04-09T08:06:50.648Z,22.52
2023-04-09T08:09:18.617Z,23.52
2023-04-09T08:11:46.084Z,24.67
2023-04-09T08:14:14.026Z,20.00
2023-04-09T08:16:42.340Z,25.00
2023-04-09T08:19:10.605Z,22.92
2023-04-09T08:21:38.958Z,22.42
2023-04-09T08:24:07.179Z,22.02
2023-04-09T08:26:34.127Z,22.80
2023-04-09T08:29:01.090Z,20.75
2023-04-09T08:31:28.227Z,21.45
2023-04-09T08:33:55.378Z,23.23
2023-04-09T08:36:22.535Z,22.67
2023-04-09T08:38:49.605Z,20.83
2023-04-09T08:41:20.386Z,19.67
2023-04-09T08:43:57.736Z,23.23
2023-04-09T08:46:26.600Z,19.35
2023-04-09T08:48:54.471Z,19.60
2023-04-09T08:51:23.837Z,22.70
2023-04-09T08:54:04.363Z,19.65
2023-04-09T08:56:32.197Z,18.02
2023-04-09T08:58:59.343Z,27.38
2023-04-09T09:01:28.133Z,19.63
2023-04-09T09:04:09.518Z,20.77
2023-04-09T09:06:38.233Z,17.60
2023-04-09T09:09:08.606Z,15.68
2023-04-09T09:11:39.401Z,15.38
2023-04-09T09:14:08.326Z,16.90
2023-04-09T09:17:00.425Z,17.02
2023-04-09T09:19:36.732Z,19.55
2023-04-09T09:22:06.034Z,19.55
2023-04-09T09:24:34.562Z,16.65
2023-04-09T09:27:03.997Z,20.75
2023-04-09T09:29:32.037Z,15.05
2023-04-09T09:31:58.982Z,13.70
2023-04-09T09:34:26.070Z,14.00
2023-04-09T09:36:53.298Z,14.02
2023-04-09T09:39:27.792Z,11.95
2023-04-09T09:46:11.567Z,12.52
2023-04-09T09:48:41.572Z,10.00
2023-04-09T09:51:10.981Z,7.78
2023-04-09T09:53:41.419Z,9.60
2023-04-09T09:56:21.218Z,6.93
2023-04-09T09:58:51.280Z,6.65
2023-04-09T10:01:19.439Z,10.98
2023-04-09T10:03:46.572Z,6.22
2023-04-09T10:06:13.595Z,9.57
2023-04-09T10:08:42.481Z,9.52
2023-04-09T10:11:25.854Z,10.60
2023-04-09T10:14:04.918Z,10.20
2023-04-09T10:17:54.071Z,7.72
2023-04-09T10:20:31.056Z,8.50
2023-04-09T10:22:59.418Z,6.15
2023-04-09T10:25:28.529Z,9.70
2023-04-09T10:28:02.455Z,6.22
2023-04-09T10:30:34.066Z,8.07
2023-04-09T10:33:19.815Z,6.90
2023-04-09T10:35:49.328Z,7.47
2023-04-09T10:38:16.391Z,5.57
2023-04-09T10:40:52.329Z,4.72
2023-04-09T10:45:53.640Z,7.72
2023-04-09T10:48:21.986Z,4.65
2023-04-09T10:50:50.760Z,8.02
2023-04-09T10:53:24.960Z,9.27
2023-04-09T10:55:57.151Z,8.30
2023-04-09T10:58:24.340Z,8.07
2023-04-09T11:00:53.761Z,8.80
2023-04-09T11:03:29.046Z,6.93
2023-04-09T11:06:10.587Z,15.02
2023-04-09T11:08:42.760Z,8.15
2023-04-09T11:11:10.059Z,7.53
2023-04-09T11:13:37.198Z,6.45
2023-04-09T11:16:07.517Z,7.55
2023-04-09T11:18:36.268Z,8.63
2023-04-09T11:21:06.665Z,7.38
2023-04-09T11:23:34.805Z,6.30
2023-04-09T11:26:02.538Z,4.53
2023-04-09T11:28:29.515Z,7.72
2023-04-09T11:30:56.992Z,6.45
2023-04-09T11:34:19.938Z,7.22
2023-04-09T11:37:03.180Z,6.50
2023-04-09T11:39:30.510Z,6.40
2023-04-09T11:41:58.830Z,8.93
2023-04-09T11:44:26.068Z,8.90
2023-04-09T11:46:55.545Z,7.20
2023-04-09T11:49:22.817Z,6.63
2023-04-09T11:51:49.729Z,10.70
2023-04-09T11:54:17.348Z,6.60
2023-04-09T11:56:44.818Z,7.10
2023-04-09T11:59:14.761Z,9.80
2023-04-09T12:01:42.416Z,7.35
2023-04-09T12:04:11.557Z,7.95
2023-04-09T12:06:42.926Z,6.82
2023-04-09T12:09:13.207Z,9.98
2023-04-09T12:11:42.686Z,6.68
2023-04-09T12:14:16.283Z,7.45
2023-04-09T12:16:46.754Z,9.75
2023-04-09T12:19:14.507Z,9.63
2023-04-09T12:21:53.109Z,8.40
2023-04-09T12:24:21.633Z,7.93
2023-04-09T12:26:48.734Z,8.25
2023-04-09T12:29:16.507Z,9.98
2023-04-09T12:31:43.965Z,8.55
2023-04-09T12:34:11.410Z,4.55
2023-04-09T12:36:41.505Z,7.45
2023-04-09T12:39:11.882Z,9.73
2023-04-09T12:41:38.870Z,7.30
2023-04-09T12:44:07.348Z,7.55
2023-04-09T12:46:35.777Z,5.72
2023-04-09T12:49:09.280Z,7.28
2023-04-09T12:51:37.048Z,5.00
2023-04-09T12:54:04.365Z,6.10
2023-04-09T12:56:31.444Z,7.65
2023-04-09T12:58:58.450Z,6.13
2023-04-09T13:01:25.485Z,6.15
2023-04-09T13:03:53.018Z,5.53
2023-04-09T13:06:20.860Z,6.00
2023-04-09T13:08:47.909Z,7.22
2023-04-09T13:11:15.000Z,9.27
2023-04-09T13:13:42.773Z,8.57
2023-04-09T13:16:10.117Z,7.50
2023-04-09T13:18:37.840Z,9.48
2023-04-09T13:21:04.907Z,11.10
2023-04-09T13:23:31.952Z,8.45
2023-04-09T13:26:00.393Z,8.15
2023-04-09T13:28:27.640Z,7.93
2023-04-09T13:30:54.804Z,7.80
2023-04-09T13:33:21.768Z,8.80
2023-04-09T13:35:48.858Z,5.75
2023-04-09T13:38:16.269Z,5.72
2023-04-09T13:40:43.525Z,6.10
2023-04-09T13:43:12.939Z,6.25
2023-04-09T13:45:40.334Z,5.93
2023-04-09T13:48:07.389Z,4.13
2023-04-09T13:50:34.471Z,6.53
2023-04-09T13:53:03.660Z,4.10
2023-04-09T13:55:30.938Z,3.42
2023-04-09T13:57:57.964Z,9.02
2023-04-09T14:00:25.000Z,4.90
2023-04-09T14:02:52.328Z,6.82
2023-04-09T14:05:19.614Z,8.40
2023-04-09T14:07:46.708Z,5.70
2023-04-09T14:10:13.628Z,3.25
2023-04-09T14:12:41.032Z,6.05
2023-04-09T14:15:12.009Z,6.28
2023-04-09T14:17:43.635Z,5.35
2023-04-09T14:20:12.011Z,2.47
2023-04-09T14:22:38.958Z,4.78
2023-04-09T14:25:06.690Z,3.20
2023-04-09T14:27:34.104Z,2.85
2023-04-09T14:30:01.047Z,1.30
2023-04-09T14:32:28.423Z,1.85
2023-04-09T14:34:55.380Z,3.85
2023-04-09T14:37:22.446Z,1.92
2023-04-09T14:39:49.488Z,2.58
2023-04-09T14:42:16.501Z,2.80
2023-04-09T14:44:43.447Z,3.20
2023-04-09T14:47:10.919Z,2.35
2023-04-09T14:49:37.916Z,2.58
2023-04-09T14:52:05.024Z,4.13
2023-04-09T14:54:32.255Z,3.55
2023-04-09T14:57:03.329Z,2.22
2023-04-09T14:59:31.504Z,2.95
2023-04-09T15:01:59.756Z,2.40
2023-04-09T15:04:28.057Z,1.67
2023-04-09T15:06:55.131Z,8.52
2023-04-09T15:09:22.154Z,2.60
2023-04-09T15:11:49.368Z,1.65
2023-04-09T15:14:16.644Z,4.68
2023-04-09T15:16:43.774Z,3.38
2023-04-09T15:19:10.989Z,3.38
2023-04-09T15:21:38.147Z,3.92
2023-04-09T15:24:05.457Z,3.35
2023-04-09T15:26:34.333Z,3.00
2023-04-09T15:29:04.014Z,6.10
2023-04-09T15:31:32.875Z,4.40
2023-04-09T15:34:00.526Z,4.68
2023-04-09T15:36:31.026Z,6.13
2023-04-09T15:38:58.252Z,7.97
2023-04-09T15:41:26.910Z,5.75
2023-04-09T15:43:54.230Z,3.65
2023-04-09T15:46:22.023Z,4.15
2023-04-09T15:48:49.163Z,3.30
2023-04-09T15:51:17.491Z,8.68
2023-04-09T15:53:44.615Z,9.27
2023-04-09T15:56:15.168Z,6.30
2023-04-09T15:58:43.124Z,4.90
2023-04-09T16:01:10.432Z,7.43
2023-04-09T16:03:40.978Z,4.88
2023-04-09T16:06:09.483Z,6.25
2023-04-09T16:08:37.279Z,7.85
2023-04-09T16:11:04.844Z,11.57
2023-04-09T16:13:32.078Z,6.28
2023-04-09T16:15:59.341Z,5.80
2023-04-09T16:18:26.651Z,4.07
2023-04-09T16:20:56.060Z,4.18
2023-04-09T16:23:24.220Z,5.38
2023-04-09T16:25:51.269Z,5.68
2023-04-09T16:28:18.369Z,3.25
2023-04-09T16:30:45.444Z,5.57
2023-04-09T16:33:12.436Z,7.05
2023-04-09T16:35:39.895Z,3.92
2023-04-09T16:38:06.992Z,5.40
2023-04-09T16:40:33.977Z,1.45
2023-04-09T16:43:01.661Z,2.22
2023-04-09T16:45:29.184Z,4.55
2023-04-09T16:47:56.321Z,3.42
2023-04-09T16:50:24.412Z,4.28
2023-04-09T16:52:51.495Z,2.17
2023-04-09T16:55:18.842Z,1.60
2023-04-09T16:57:47.285Z,4.78
2023-04-09T17:00:17.475Z,7.03
2023-04-09T17:02:45.836Z,1.85
2023-04-09T17:05:13.615Z,1.70
2023-04-09T17:07:42.294Z,1.73
2023-04-09T17:10:09.739Z,2.22
2023-04-09T17:12:37.320Z,4.97
2023-04-09T17:15:05.147Z,4.82
2023-04-09T17:17:34.397Z,1.25
2023-04-09T17:20:06.857Z,3.38
2023-04-09T17:22:39.494Z,2.13
2023-04-09T17:25:07.161Z,3.20
2023-04-09T17:27:34.439Z,2.78
2023-04-09T17:30:03.366Z,2.75
2023-04-09T17:32:31.458Z,3.17
2023-04-09T17:34:59.710Z,1.25
2023-04-09T17:37:28.904Z,2.90
2023-04-09T17:39:56.155Z,0.95
2023-04-09T17:42:24.604Z,1.50
2023-04-09T17:44:52.027Z,2.28
2023-04-09T17:47:19.739Z,9.70
2023-04-09T17:49:46.932Z,1.90
2023-04-09T17:52:16.383Z,1.58
2023-04-09T17:54:45.506Z,3.05
2023-04-09T17:57:12.794Z,2.25
2023-04-09T17:59:40.872Z,2.88
2023-04-09T18:02:08.214Z,1.25
2023-04-09T18:04:36.012Z,1.55
2023-04-09T18:07:03.925Z,3.00
2023-04-09T18:09:31.096Z,2.00
2023-04-09T18:12:00.269Z,1.90
2023-04-09T18:14:27.493Z,0.65
2023-04-09T18:16:54.982Z,1.10
2023-04-09T18:19:24.521Z,0.30
2023-04-09T18:21:51.828Z,1.98
2023-04-09T18:24:20.048Z,1.20
2023-04-09T18:26:47.692Z,5.90
2023-04-09T18:29:15.548Z,2.70
2023-04-09T18:31:45.785Z,0.82
2023-04-09T18:34:13.138Z,2.50
2023-04-09T18:36:42.085Z,0.75
2023-04-09T18:39:09.376Z,1.30
2023-04-09T18:41:36.602Z,3.20
2023-04-09T18:44:04.833Z,6.10
2023-04-09T18:46:32.143Z,3.22
2023-04-09T18:49:00.378Z,1.80
2023-04-09T18:51:28.769Z,2.60
2023-04-09T18:53:56.753Z,8.57
2023-04-09T18:56:24.737Z,6.47
2023-04-09T18:58:52.113Z,3.42
2023-04-09T19:01:24.642Z,5.75
2023-04-09T19:03:52.166Z,4.00
2023-04-09T19:06:19.796Z,4.88
2023-04-09T19:08:47.591Z,5.05
2023-04-09T19:11:15.492Z,6.28
2023-04-09T19:13:46.474Z,5.20
2023-04-09T19:16:13.600Z,4.10
2023-04-09T19:18:41.268Z,3.72
2023-04-09T19:21:08.781Z,3.97
2023-04-09T19:23:35.792Z,3.65
2023-04-09T19:26:03.286Z,5.53
2023-04-09T19:28:30.612Z,2.67
2023-04-09T19:30:59.281Z,2.30
2023-04-09T19:33:28.057Z,4.00
2023-04-09T19:35:55.266Z,2.47
2023-04-09T19:38:22.285Z,4.00
2023-04-09T19:40:50.562Z,4.68
2023-04-09T19:43:17.778Z,3.38
2023-04-09T19:45:46.230Z,2.90
2023-04-09T19:48:13.428Z,2.67
2023-04-09T19:50:41.269Z,4.00
2023-04-09T19:53:08.754Z,6.88
2023-04-09T19:55:37.039Z,2.33
2023-04-09T19:58:04.835Z,3.33
2023-04-09T20:00:32.699Z,7.00
2023-04-09T20:03:00.299Z,6.68
2023-04-09T20:05:27.812Z,2.13
2023-04-09T20:07:54.985Z,9.15
2023-04-09T20:10:22.015Z,2.08
2023-04-09T20:12:49.322Z,4.18
2023-04-09T20:15:19.822Z,4.07
2023-04-09T20:17:51.566Z,4.68
2023-04-09T20:20:20.124Z,3.75
2023-04-09T20:22:56.336Z,7.53
2023-04-09T20:25:24.898Z,4.88
2023-04-09T20:27:56.049Z,3.30
2023-04-09T20:30:27.373Z,6.53
2023-04-09T20:32:55.609Z,4.72
2023-04-09T20:35:22.825Z,2.83
2023-04-09T20:37:50.038Z,4.10
2023-04-09T20:40:18.280Z,5.82
2023-04-09T20:42:45.410Z,2.85
2023-04-09T20:45:12.401Z,4.47
2023-04-09T20:47:39.546Z,4.07
2023-04-09T20:50:07.206Z,5.03
2023-04-09T20:52:34.327Z,5.28
2023-04-09T20:55:01.360Z,5.57
2023-04-09T20:57:28.424Z,7.78
2023-04-09T20:59:55.505Z,1.88
2023-04-09T21:02:23.483Z,4.22
2023-04-09T21:04:50.656Z,4.00
2023-04-09T21:07:19.004Z,5.03
2023-04-09T21:09:46.732Z,10.73
2023-04-09T21:12:13.650Z,3.67
2023-04-09T21:14:40.674Z,2.45
2023-04-09T21:17:07.952Z,3.50
2023-04-09T21:19:34.982Z,6.82
2023-04-09T21:22:04.607Z,4.50
2023-04-09T21:24:33.872Z,1.85
2023-04-09T21:27:04.883Z,3.60
2023-04-09T21:29:37.178Z,3.85
2023-04-09T21:32:04.167Z,5.00
2023-04-09T21:34:31.482Z,4.32
2023-04-09T21:37:02.003Z,2.00
2023-04-09T21:39:29.177Z,3.90
2023-04-09T21:41:57.294Z,4.85
2023-04-09T21:44:24.235Z,5.20
2023-04-09T21:46:52.189Z,3.33
2023-04-09T21:49:19.336Z,5.07
2023-04-09T21:51:46.745Z,3.40
2023-04-09T21:54:14.168Z,2.55
2023-04-09T21:56:43.510Z,4.10
2023-04-09T21:59:12.258Z,5.53
2023-04-09T22:01:39.741Z,1.15
2023-04-09T22:04:07.004Z,1.15
2023-04-09T22:06:34.191Z,3.22
2023-04-09T22:09:01.797Z,4.10
2023-04-09T22:11:29.353Z,1.63
2023-04-09T22:13:57.447Z,2.35
2023-04-09T22:16:25.861Z,7.75
2023-04-09T22:18:54.062Z,2.63
2023-04-09T22:21:22.952Z,4.75
2023-04-09T22:23:50.080Z,5.15
2023-04-09T22:26:17.173Z,3.45
2023-04-09T22:28:44.602Z,6.15
2023-04-09T22:31:12.590Z,4.38
2023-04-09T22:33:40.193Z,2.75
2023-04-09T22:36:08.512Z,3.45
2023-04-09T22:38:36.213Z,2.28
2023-04-09T22:41:07.117Z,3.28
2023-04-09T22:43:34.390Z,3.00
2023-04-09T22:46:02.633Z,3.88
2023-04-09T22:48:30.977Z,2.55
2023-04-09T22:50:58.663Z,7.05
2023-04-09T22:53:25.810Z,4.35
2023-04-09T22:55:54.925Z,10.70
2023-04-09T22:58:21.951Z,3.55
2023-04-09T23:00:49.635Z,3.55
2023-04-09T23:03:17.176Z,2.63
2023-04-09T23:05:44.378Z,8.95
2023-04-09T23:08:12.163Z,1.85
2023-04-09T23:10:39.266Z,6.10
2023-04-09T23:13:06.508Z,4.30
2023-04-09T23:15:34.139Z,2.78
2023-04-09T23:18:01.189Z,5.22
2023-04-09T23:20:29.326Z,4.72
2023-04-09T23:22:56.302Z,2.92
2023-04-09T23:25:23.273Z,4.60
2023-04-09T23:27:50.324Z,4.78
2023-04-09T23:30:18.181Z,5.80
2023-04-09T23:32:45.411Z,5.82
2023-04-09T23:35:12.548Z,5.43
2023-04-09T23:37:40.310Z,6.45
2023-04-09T23:40:07.952Z,6.80
2023-04-09T23:42:35.197Z,3.92
2023-04-09T23:45:06.054Z,5.43
2023-04-09T23:47:34.347Z,5.03
2023-04-09T23:50:05.731Z,5.82
2023-04-09T23:52:37.421Z,5.82
2023-04-09T23:55:05.309Z,7.13
2023-04-09T23:57:32.261Z,5.82
2023-04-09T23:59:59.241Z,4.13
